Time;durP1;ratioP1;P1;durP2;ratioP2;P2;SDS_P1;SDS_P2;PMS_P1;PMS_P2;Temp;Humidity;BMP_temperature;BMP_pressure;BME280_temperature;BME280_humidity;BME280_pressure;Samples;Min_cycle;Max_cycle;Signal;HPM_P1;HPM_P2
2022/07/02 00:01:03;;;;;;;2.35;1.30;;;17.50;99.90;;;;;;6216136;23;20164;-74
2022/07/02 00:03:32;;;;;;;1.20;1.10;;;17.40;99.90;;;;;;6215421;23;20189;-73
2022/07/02 00:06:02;;;;;;;2.03;0.90;;;17.40;99.90;;;;;;6215005;23;20149;-75
2022/07/02 00:08:28;;;;;;;1.55;0.98;;;17.30;99.90;;;;;;6217016;23;20166;-74
2022/07/02 00:10:58;;;;;;;1.27;0.93;;;17.30;99.90;;;;;;6216602;23;20176;-72
2022/07/02 00:13:25;;;;;;;1.63;1.10;;;17.30;99.90;;;;;;6215564;23;20185;-70
2022/07/02 00:15:51;;;;;;;1.83;1.00;;;17.20;99.90;;;;;;6216772;23;20228;-76
2022/07/02 00:18:18;;;;;;;11.15;8.07;;;17.20;99.90;;;;;;6214198;23;20184;-75
2022/07/02 00:20:46;;;;;;;26.63;18.35;;;17.20;99.90;;;;;;6216365;23;20296;-72
2022/07/02 00:23:14;;;;;;;13.77;10.88;;;17.10;99.90;;;;;;6215219;23;20185;-75
2022/07/02 00:26:03;;;;;;;6.90;5.57;;;17.10;99.90;;;;;;6214247;23;20149;-75
2022/07/02 00:28:33;;;;;;;4.60;3.40;;;17.10;99.90;;;;;;6214769;23;20149;-74
2022/07/02 00:30:58;;;;;;;3.90;2.70;;;17.10;99.90;;;;;;6216693;23;20174;-74
2022/07/02 00:33:25;;;;;;;2.50;2.15;;;17.00;99.90;;;;;;6216143;23;20161;-73
2022/07/02 00:35:50;;;;;;;3.60;1.52;;;17.00;99.90;;;;;;6214759;23;20153;-72
2022/07/02 00:38:16;;;;;;;2.47;1.40;;;17.00;99.90;;;;;;6213992;23;20158;-73
2022/07/02 00:40:45;;;;;;;2.20;1.50;;;16.90;99.90;;;;;;6214853;23;20177;-72
2022/07/02 00:43:14;;;;;;;2.83;1.20;;;16.90;99.90;;;;;;6214351;23;20183;-75
2022/07/02 00:45:39;;;;;;;1.40;1.17;;;16.90;99.90;;;;;;6214491;23;20207;-75
2022/07/02 00:48:07;;;;;;;1.80;1.40;;;16.80;99.90;;;;;;6214680;23;20184;-73
2022/07/02 00:50:36;;;;;;;2.53;1.48;;;16.80;99.90;;;;;;6215038;23;20202;-73
2022/07/02 00:53:01;;;;;;;1.20;1.08;;;16.70;99.90;;;;;;6214264;23;20391;-73
2022/07/02 00:55:29;;;;;;;2.38;1.27;;;16.70;99.90;;;;;;6215380;23;20157;-72
2022/07/02 00:57:56;;;;;;;2.05;1.38;;;16.70;99.90;;;;;;6216326;23;20177;-74
2022/07/02 01:00:23;;;;;;;2.08;1.20;;;16.70;99.90;;;;;;6214906;23;20232;-74
2022/07/02 01:02:52;;;;;;;1.60;1.00;;;16.60;99.90;;;;;;6216669;23;20149;-72
2022/07/02 01:05:19;;;;;;;2.45;1.10;;;16.60;99.90;;;;;;6218600;23;20600;-73
2022/07/02 01:10:16;;;;;;;1.48;1.00;;;16.60;99.90;;;;;;6215354;23;20180;-71
2022/07/02 01:10:48;;;;;;;1.35;0.88;;;16.60;99.90;;;;;;6215954;23;20168;-73
2022/07/02 01:13:17;;;;;;;1.42;0.93;;;16.50;99.90;;;;;;6214802;23;20141;-74
2022/07/02 01:15:43;;;;;;;1.08;0.80;;;16.60;99.90;;;;;;6215252;23;20245;-73
2022/07/02 01:18:17;;;;;;;2.00;1.02;;;16.50;99.90;;;;;;6214206;23;20185;-74
2022/07/02 01:20:46;;;;;;;2.08;0.98;;;16.50;99.90;;;;;;6215597;23;20152;-72
2022/07/02 01:23:16;;;;;;;1.00;0.63;;;16.50;99.90;;;;;;6216043;23;20181;-74
2022/07/02 01:25:52;;;;;;;0.75;0.70;;;16.50;99.90;;;;;;6214190;23;20169;-75
2022/07/02 01:28:18;;;;;;;0.90;0.80;;;16.50;99.90;;;;;;6214116;23;20200;-74
2022/07/02 01:30:46;;;;;;;1.10;0.90;;;16.40;99.90;;;;;;6213864;23;20164;-74
2022/07/02 01:33:12;;;;;;;0.90;0.70;;;16.40;99.90;;;;;;6213833;23;20177;-75
2022/07/02 01:35:40;;;;;;;0.90;0.80;;;16.30;99.90;;;;;;6214267;23;20161;-74
2022/07/02 01:38:06;;;;;;;0.80;0.70;;;16.30;99.90;;;;;;6214343;23;20154;-74
2022/07/02 01:40:34;;;;;;;1.10;0.70;;;16.30;99.90;;;;;;6214173;23;20244;-73
2022/07/02 01:43:02;;;;;;;0.80;0.75;;;16.20;99.90;;;;;;6215748;23;20253;-74
2022/07/02 01:45:27;;;;;;;1.15;0.70;;;16.20;99.90;;;;;;6214141;23;20149;-73
2022/07/02 01:47:55;;;;;;;1.60;0.85;;;16.20;99.90;;;;;;6215094;23;20185;-73
2022/07/02 01:50:21;;;;;;;1.27;0.80;;;16.20;99.90;;;;;;6214032;23;20150;-75
2022/07/02 01:52:48;;;;;;;0.80;0.70;;;16.10;99.90;;;;;;6214089;23;20154;-74
2022/07/02 01:55:14;;;;;;;1.40;0.85;;;16.10;99.90;;;;;;6213430;23;20149;-72
2022/07/02 01:57:40;;;;;;;1.00;0.73;;;16.10;99.90;;;;;;6214453;23;20160;-74
2022/07/02 02:00:09;;;;;;;0.75;0.60;;;16.10;99.90;;;;;;6213909;23;20221;-73
2022/07/02 02:02:34;;;;;;;1.30;0.80;;;16.10;99.90;;;;;;6214171;23;20150;-72
2022/07/02 02:05:03;;;;;;;1.15;0.80;;;16.00;99.90;;;;;;6213705;23;20224;-74
2022/07/02 02:07:29;;;;;;;1.08;0.80;;;16.00;99.90;;;;;;6213576;23;20153;-75
2022/07/02 02:09:55;;;;;;;1.95;1.00;;;16.00;99.90;;;;;;6213173;23;20157;-74
2022/07/02 02:12:21;;;;;;;1.27;0.70;;;16.00;99.90;;;;;;6216234;23;20153;-73
2022/07/02 02:14:47;;;;;;;0.98;0.75;;;15.90;99.90;;;;;;6216279;23;20248;-75
2022/07/02 02:17:12;;;;;;;1.60;0.80;;;15.90;99.90;;;;;;6213482;23;20161;-72
2022/07/02 02:19:38;;;;;;;1.00;0.70;;;15.90;99.90;;;;;;6213767;23;20158;-73
2022/07/02 02:22:06;;;;;;;0.90;0.80;;;15.90;99.90;;;;;;6215781;23;20207;-75
2022/07/02 02:24:37;;;;;;;1.00;0.80;;;15.80;99.90;;;;;;6213294;23;20513;-74
2022/07/02 02:27:05;;;;;;;1.73;0.80;;;15.80;99.90;;;;;;6214710;23;20199;-74
2022/07/02 02:29:31;;;;;;;1.05;0.80;;;15.80;99.90;;;;;;6214319;23;20150;-74
2022/07/02 02:31:56;;;;;;;1.42;0.75;;;15.80;99.90;;;;;;6213125;23;20149;-72
2022/07/02 02:34:24;;;;;;;2.35;0.80;;;15.70;99.90;;;;;;6213533;23;20165;-71
2022/07/02 02:36:52;;;;;;;1.17;0.88;;;15.70;99.90;;;;;;6217167;23;20181;-73
2022/07/02 02:39:17;;;;;;;1.02;0.80;;;15.70;99.90;;;;;;6218336;23;20185;-73
2022/07/02 02:41:43;;;;;;;1.85;0.80;;;15.70;99.90;;;;;;6214138;23;20150;-74
2022/07/02 02:44:09;;;;;;;0.75;0.60;;;15.60;99.90;;;;;;6216528;23;20219;-72
2022/07/02 02:46:36;;;;;;;0.90;0.80;;;15.60;99.90;;;;;;6213072;23;20154;-74
2022/07/02 02:49:04;;;;;;;1.05;0.80;;;15.60;99.90;;;;;;6214217;23;20240;-73
2022/07/02 02:51:30;;;;;;;1.48;0.90;;;15.50;99.90;;;;;;6213228;23;20149;-72
2022/07/02 02:54:00;;;;;;;0.90;0.80;;;15.50;99.90;;;;;;6213059;23;20235;-74
2022/07/02 02:56:30;;;;;;;0.98;0.80;;;15.50;99.90;;;;;;6215760;23;20181;-72
2022/07/02 02:58:59;;;;;;;1.20;0.82;;;15.40;99.90;;;;;;6213867;23;20169;-73
2022/07/02 03:01:27;;;;;;;0.90;0.80;;;15.40;99.90;;;;;;6213397;23;20157;-73
2022/07/02 03:03:58;;;;;;;1.05;0.82;;;15.40;99.90;;;;;;6216796;23;20173;-73
2022/07/02 03:06:28;;;;;;;1.52;1.00;;;15.30;99.90;;;;;;6218754;23;20150;-73
2022/07/02 03:08:54;;;;;;;2.38;0.80;;;15.30;99.90;;;;;;6212959;23;20150;-74
2022/07/02 03:11:22;;;;;;;1.92;1.00;;;15.30;99.90;;;;;;6212908;23;20183;-72
2022/07/02 03:13:47;;;;;;;1.00;0.80;;;15.30;99.90;;;;;;6213577;23;20149;-72
2022/07/02 03:16:15;;;;;;;1.35;0.88;;;15.20;99.90;;;;;;6212760;23;20199;-73
2022/07/02 03:18:41;;;;;;;1.23;0.93;;;15.20;99.90;;;;;;6213794;23;20165;-73
2022/07/02 03:21:07;;;;;;;1.10;0.80;;;15.20;99.90;;;;;;6216763;23;20256;-74
2022/07/02 03:23:32;;;;;;;1.58;0.80;;;15.20;99.90;;;;;;6215525;23;20182;-74
2022/07/02 03:26:00;;;;;;;1.15;0.77;;;15.20;99.90;;;;;;6214073;23;20188;-72
2022/07/02 03:28:26;;;;;;;1.25;1.00;;;15.20;99.90;;;;;;6213675;23;20177;-74
2022/07/02 03:30:54;;;;;;;1.42;0.80;;;15.20;99.90;;;;;;6213666;23;20160;-73
2022/07/02 03:33:20;;;;;;;2.00;0.90;;;15.20;99.90;;;;;;6214407;23;20153;-75
2022/07/02 03:35:48;;;;;;;0.80;0.80;;;15.20;99.90;;;;;;6215213;23;20204;-74
2022/07/02 03:38:13;;;;;;;1.45;0.90;;;15.20;99.90;;;;;;6215066;23;20177;-74
2022/07/02 03:40:41;;;;;;;1.77;0.85;;;15.10;99.90;;;;;;6216896;23;20161;-72
2022/07/02 03:43:07;;;;;;;1.35;0.60;;;15.20;99.90;;;;;;6215399;23;20173;-74
2022/07/02 03:45:35;;;;;;;2.55;1.00;;;15.20;99.90;;;;;;6217931;23;20156;-74
2022/07/02 03:48:01;;;;;;;2.05;0.82;;;15.20;99.90;;;;;;6216017;23;20188;-71
2022/07/02 03:50:29;;;;;;;1.10;0.77;;;15.10;99.90;;;;;;6216665;23;20153;-73
2022/07/02 03:52:54;;;;;;;1.10;0.73;;;15.20;99.90;;;;;;6215278;23;20164;-71
2022/07/02 03:55:20;;;;;;;0.80;0.70;;;15.20;99.90;;;;;;6215878;23;20200;-72
2022/07/02 03:57:46;;;;;;;2.03;0.70;;;15.20;99.90;;;;;;6216638;23;20160;-70
2022/07/02 04:00:16;;;;;;;1.02;0.85;;;15.20;99.90;;;;;;6217135;23;20177;-73
2022/07/02 04:02:42;;;;;;;2.25;0.90;;;15.20;99.90;;;;;;6214317;23;20188;-72
2022/07/02 04:05:10;;;;;;;1.15;0.90;;;15.20;99.90;;;;;;6214315;23;20177;-75
2022/07/02 04:07:36;;;;;;;1.77;0.80;;;15.20;99.90;;;;;;6214649;23;20146;-74
2022/07/02 04:10:03;;;;;;;1.33;0.98;;;15.20;99.90;;;;;;6214091;23;20153;-75
2022/07/02 04:12:31;;;;;;;0.70;0.70;;;15.20;99.90;;;;;;6216562;23;20178;-74
2022/07/02 04:14:59;;;;;;;3.45;0.95;;;15.20;99.90;;;;;;6215613;23;20157;-75
2022/07/02 04:17:27;;;;;;;1.08;0.73;;;15.20;99.90;;;;;;6214572;23;20153;-74
2022/07/02 04:19:55;;;;;;;0.90;0.80;;;15.20;99.90;;;;;;6214542;23;20174;-75
2022/07/02 04:22:24;;;;;;;1.00;0.80;;;15.20;99.90;;;;;;6215129;23;20181;-71
2022/07/02 04:24:51;;;;;;;2.33;0.90;;;15.30;99.90;;;;;;6220967;23;20177;-73
2022/07/02 04:27:19;;;;;;;1.48;0.80;;;15.30;99.90;;;;;;6222478;23;20150;-75
2022/07/02 04:29:45;;;;;;;1.63;0.90;;;15.30;99.90;;;;;;6215096;23;20150;-75
2022/07/02 04:32:13;;;;;;;1.17;1.00;;;15.40;99.90;;;;;;6221748;23;20169;-73
2022/07/02 04:34:38;;;;;;;2.25;0.98;;;15.40;99.90;;;;;;6219299;23;20146;-74
2022/07/02 04:37:04;;;;;;;0.93;0.77;;;15.40;99.90;;;;;;6216969;23;20153;-74
2022/07/02 04:39:32;;;;;;;1.02;0.70;;;15.40;99.90;;;;;;6215557;23;20190;-72
2022/07/02 04:41:58;;;;;;;1.27;0.80;;;15.50;99.90;;;;;;6215125;23;20157;-73
2022/07/02 04:44:25;;;;;;;2.10;0.73;;;15.50;99.90;;;;;;6214293;23;20197;-73
2022/07/02 04:46:52;;;;;;;1.35;0.75;;;15.50;99.90;;;;;;6215248;23;20185;-72
2022/07/02 04:49:18;;;;;;;1.00;0.90;;;15.60;99.90;;;;;;6215293;23;20237;-70
2022/07/02 04:51:46;;;;;;;1.55;1.02;;;15.60;99.90;;;;;;6216000;23;20153;-73
2022/07/02 04:54:17;;;;;;;2.15;0.90;;;15.70;99.90;;;;;;6214003;23;20167;-73
2022/07/02 04:56:42;;;;;;;1.80;0.88;;;15.70;99.90;;;;;;6213463;23;20264;-73
2022/07/02 04:59:08;;;;;;;1.02;0.88;;;15.80;99.90;;;;;;6216131;23;20180;-71
2022/07/02 05:01:34;;;;;;;1.70;1.00;;;15.80;99.90;;;;;;6218294;23;20160;-72
2022/07/02 05:04:01;;;;;;;1.00;0.70;;;15.90;99.90;;;;;;6217821;23;20204;-72
2022/07/02 05:06:27;;;;;;;1.08;0.80;;;15.90;99.90;;;;;;6214962;23;20184;-73
2022/07/02 05:08:53;;;;;;;1.25;0.80;;;16.00;99.90;;;;;;6219654;23;20327;-71
2022/07/02 05:11:21;;;;;;;1.42;0.75;;;16.00;99.90;;;;;;6216441;23;20149;-74
2022/07/02 05:13:49;;;;;;;2.10;0.88;;;16.10;99.90;;;;;;6215441;23;20220;-72
2022/07/02 05:16:16;;;;;;;2.22;0.90;;;16.20;99.90;;;;;;6223203;23;20161;-70
2022/07/02 05:18:44;;;;;;;1.52;1.30;;;16.20;99.90;;;;;;6217962;23;20165;-72
2022/07/02 05:21:10;;;;;;;1.23;1.13;;;16.30;99.90;;;;;;6215454;23;20219;-75
2022/07/02 05:23:36;;;;;;;1.67;0.90;;;16.30;99.90;;;;;;6214904;23;20197;-73
2022/07/02 05:26:04;;;;;;;1.48;0.95;;;16.30;99.90;;;;;;6217540;23;20160;-72
2022/07/02 05:28:30;;;;;;;1.38;1.00;;;16.40;99.90;;;;;;6219276;23;20145;-74
2022/07/02 05:30:55;;;;;;;2.97;1.05;;;16.40;99.90;;;;;;6215868;23;20157;-74
2022/07/02 05:33:23;;;;;;;1.10;0.90;;;16.50;99.90;;;;;;6215810;23;20244;-74
2022/07/02 05:35:53;;;;;;;0.88;0.80;;;16.50;99.90;;;;;;6218598;23;20149;-74
2022/07/02 05:38:19;;;;;;;0.80;0.80;;;16.60;99.90;;;;;;6215421;23;20150;-74
2022/07/02 05:40:47;;;;;;;1.00;0.73;;;16.60;99.90;;;;;;6217274;23;20268;-69
2022/07/02 05:43:15;;;;;;;1.13;0.98;;;16.70;99.90;;;;;;6217742;23;20231;-75
2022/07/02 05:45:41;;;;;;;3.30;1.85;;;16.80;99.90;;;;;;6214923;23;20385;-74
2022/07/02 05:48:09;;;;;;;1.70;1.13;;;16.80;99.90;;;;;;6214608;23;20221;-74
2022/07/02 05:50:36;;;;;;;1.25;1.00;;;16.90;99.90;;;;;;6214567;23;20169;-73
2022/07/02 05:53:02;;;;;;;1.60;1.05;;;16.90;99.90;;;;;;6218060;23;20158;-75
2022/07/02 05:55:28;;;;;;;0.93;0.80;;;17.00;99.90;;;;;;6214789;23;20156;-77
2022/07/02 05:57:56;;;;;;;1.38;0.80;;;17.00;99.90;;;;;;6214431;23;20161;-75
2022/07/02 06:00:22;;;;;;;0.80;0.80;;;17.10;99.90;;;;;;6214438;23;20161;-73
2022/07/02 06:02:47;;;;;;;2.25;0.90;;;17.10;99.90;;;;;;6214105;23;20180;-74
2022/07/02 06:07:57;;;;;;;1.38;0.90;;;17.20;99.90;;;;;;6214530;23;20192;-75
2022/07/02 06:10:26;;;;;;;1.45;0.90;;;17.20;99.90;;;;;;6212710;23;20157;-71
2022/07/02 06:12:52;;;;;;;2.00;1.08;;;17.30;99.90;;;;;;6213064;23;20256;-75
2022/07/02 06:15:23;;;;;;;1.65;0.90;;;17.40;99.90;;;;;;6213481;23;20149;-75
2022/07/02 06:17:49;;;;;;;1.48;0.90;;;17.40;99.90;;;;;;6212574;23;20236;-74
2022/07/02 06:20:17;;;;;;;1.50;0.93;;;17.50;99.90;;;;;;6212933;23;20153;-72
2022/07/02 06:22:43;;;;;;;2.88;0.90;;;17.50;99.90;;;;;;6213570;23;20200;-74
2022/07/02 06:25:11;;;;;;;1.88;1.10;;;17.60;99.90;;;;;;6213320;23;20193;-73
2022/07/02 06:27:38;;;;;;;2.08;1.10;;;17.60;99.90;;;;;;6213281;23;20149;-73
2022/07/02 06:30:04;;;;;;;1.20;0.93;;;17.70;99.90;;;;;;6213064;23;20284;-75
2022/07/02 06:32:33;;;;;;;1.35;1.00;;;17.80;99.90;;;;;;6213507;23;20164;-74
2022/07/02 06:35:01;;;;;;;1.38;0.93;;;17.90;99.90;;;;;;6212607;23;20172;-73
2022/07/02 06:37:29;;;;;;;1.90;1.15;;;17.90;99.90;;;;;;6213442;23;20153;-74
2022/07/02 06:39:57;;;;;;;2.72;1.80;;;18.00;99.90;;;;;;6213735;23;20161;-74
2022/07/02 06:42:22;;;;;;;1.85;1.23;;;18.10;99.90;;;;;;6214374;23;20158;-72
2022/07/02 06:44:53;;;;;;;1.02;0.93;;;18.10;99.90;;;;;;6215965;23;20185;-74
2022/07/02 06:47:19;;;;;;;1.88;1.30;;;18.20;99.90;;;;;;6214611;23;20145;-74
2022/07/02 06:49:47;;;;;;;1.38;1.10;;;18.30;99.90;;;;;;6214333;23;20156;-73
2022/07/02 06:52:16;;;;;;;1.25;1.13;;;18.30;99.90;;;;;;6213840;23;20176;-74
2022/07/02 06:54:42;;;;;;;1.50;1.17;;;18.40;99.90;;;;;;6215034;23;20156;-76
2022/07/02 06:57:10;;;;;;;1.60;1.10;;;18.50;99.90;;;;;;6215375;23;20153;-75
2022/07/02 06:59:39;;;;;;;2.03;1.00;;;18.50;99.90;;;;;;6218524;23;20176;-72
2022/07/02 07:02:08;;;;;;;1.70;1.15;;;18.60;99.90;;;;;;6215012;23;20181;-74
2022/07/02 07:04:38;;;;;;;1.40;1.00;;;18.70;99.90;;;;;;6212959;23;20173;-76
2022/07/02 07:07:05;;;;;;;1.35;0.98;;;18.80;99.90;;;;;;6223055;23;20157;-71
2022/07/02 07:09:34;;;;;;;1.92;0.85;;;18.90;99.90;;;;;;6218859;23;20212;-74
2022/07/02 07:12:06;;;;;;;1.88;1.00;;;18.90;99.90;;;;;;6217633;23;20190;-74
2022/07/02 07:14:33;;;;;;;1.20;0.90;;;19.00;99.90;;;;;;6216357;23;20168;-73
2022/07/02 07:17:01;;;;;;;1.48;0.90;;;19.10;99.90;;;;;;6216481;23;20164;-74
2022/07/02 07:19:27;;;;;;;2.05;0.80;;;19.20;99.90;;;;;;6215825;23;20177;-74
2022/07/02 07:21:53;;;;;;;1.38;1.20;;;19.30;99.90;;;;;;6214750;23;20215;-75
2022/07/02 07:24:18;;;;;;;1.27;0.88;;;19.30;99.90;;;;;;6219896;23;20234;-73
2022/07/02 07:26:44;;;;;;;2.13;0.80;;;19.40;99.90;;;;;;6215416;23;20219;-75
2022/07/02 07:29:10;;;;;;;3.65;0.95;;;19.50;99.90;;;;;;6215746;23;20154;-76
2022/07/02 07:31:36;;;;;;;0.73;0.70;;;19.60;99.90;;;;;;6216311;23;20153;-74
2022/07/02 07:34:03;;;;;;;1.17;0.88;;;19.70;99.90;;;;;;6215797;23;20161;-73
2022/07/02 07:36:29;;;;;;;1.65;0.88;;;19.80;99.90;;;;;;6217242;23;20200;-75
2022/07/02 07:38:55;;;;;;;1.52;0.98;;;19.80;99.90;;;;;;6218462;23;20185;-76
2022/07/02 07:41:22;;;;;;;1.70;1.00;;;19.90;99.90;;;;;;6215571;23;20181;-73
2022/07/02 07:43:48;;;;;;;1.45;0.95;;;20.00;99.90;;;;;;6217292;23;20254;-74
2022/07/02 07:46:14;;;;;;;0.95;0.70;;;20.00;99.90;;;;;;6216443;23;20179;-75
2022/07/02 07:48:44;;;;;;;1.00;0.77;;;20.10;99.90;;;;;;6215573;23;20185;-76
2022/07/02 07:51:10;;;;;;;1.10;0.90;;;20.20;99.90;;;;;;6219350;23;20153;-75
2022/07/02 07:53:35;;;;;;;1.00;0.80;;;20.20;99.90;;;;;;6215296;23;20229;-75
2022/07/02 07:56:01;;;;;;;1.05;0.73;;;20.30;99.90;;;;;;6216396;23;20181;-73
2022/07/02 07:58:29;;;;;;;2.35;0.80;;;20.40;99.90;;;;;;6217669;23;20187;-74
2022/07/02 08:00:55;;;;;;;0.90;0.80;;;20.50;99.90;;;;;;6215964;23;20157;-75
2022/07/02 08:03:23;;;;;;;1.23;0.60;;;20.50;99.90;;;;;;6215898;23;20192;-75
2022/07/02 08:05:53;;;;;;;1.15;0.75;;;20.60;99.90;;;;;;6216261;23;20145;-74
2022/07/02 08:08:20;;;;;;;1.58;0.88;;;20.70;99.90;;;;;;6215759;23;20153;-75
2022/07/02 08:10:46;;;;;;;1.98;0.85;;;20.80;99.90;;;;;;6215910;23;20150;-71
2022/07/02 08:13:14;;;;;;;1.83;0.75;;;20.90;99.90;;;;;;6216670;23;20212;-72
2022/07/02 08:15:39;;;;;;;1.75;0.70;;;21.00;99.90;;;;;;6218658;23;20150;-77
2022/07/02 08:18:05;;;;;;;0.80;0.60;;;21.10;99.90;;;;;;6215984;23;20160;-75
2022/07/02 08:20:33;;;;;;;0.52;0.50;;;21.20;99.90;;;;;;6214389;23;20165;-76
2022/07/02 08:22:59;;;;;;;1.38;0.60;;;21.20;99.90;;;;;;6214232;23;20158;-76
2022/07/02 08:25:27;;;;;;;1.33;0.55;;;21.30;99.90;;;;;;6216672;23;20149;-73
2022/07/02 08:27:53;;;;;;;1.35;0.57;;;21.40;99.90;;;;;;6216693;23;20280;-73
2022/07/02 08:30:21;;;;;;;2.20;0.55;;;21.50;99.90;;;;;;6216344;23;20272;-76
2022/07/02 08:32:47;;;;;;;0.90;0.70;;;21.60;99.90;;;;;;6220182;23;20219;-76
2022/07/02 08:35:13;;;;;;;0.70;0.57;;;21.70;99.90;;;;;;6219911;23;20161;-75
2022/07/02 08:37:39;;;;;;;0.43;0.38;;;21.80;99.90;;;;;;6216492;23;20154;-75
2022/07/02 08:40:05;;;;;;;1.13;0.50;;;21.80;99.90;;;;;;6217112;23;20223;-75
2022/07/02 08:42:32;;;;;;;0.75;0.50;;;21.90;99.90;;;;;;6220116;23;20153;-76
2022/07/02 08:45:02;;;;;;;0.90;0.60;;;22.00;99.90;;;;;;6220371;23;20184;-75
2022/07/02 08:47:30;;;;;;;0.47;0.40;;;22.00;99.90;;;;;;6215482;23;20149;-74
2022/07/02 08:49:59;;;;;;;0.77;0.50;;;22.10;99.90;;;;;;6215923;23;20295;-75
2022/07/02 08:52:28;;;;;;;0.43;0.43;;;22.10;99.90;;;;;;6221966;23;20209;-73
2022/07/02 08:54:57;;;;;;;0.93;0.50;;;22.20;99.90;;;;;;6217135;23;20157;-74
2022/07/02 08:57:49;;;;;;;2.88;0.50;;;22.30;99.90;;;;;;6215216;23;20185;-74
2022/07/02 09:00:16;;;;;;;0.55;0.50;;;22.30;99.90;;;;;;6217625;23;20206;-76
2022/07/02 09:02:43;;;;;;;0.60;0.40;;;22.40;99.90;;;;;;6215495;23;20157;-74
2022/07/02 09:05:11;;;;;;;0.43;0.30;;;22.40;99.90;;;;;;6219408;23;20165;-73
2022/07/02 09:07:39;;;;;;;0.63;0.20;;;22.40;99.90;;;;;;6216695;23;20161;-75
2022/07/02 09:10:08;;;;;;;4.47;0.50;;;22.40;99.90;;;;;;6214193;23;20153;-76
2022/07/02 09:12:37;;;;;;;0.88;0.40;;;22.40;99.90;;;;;;6219424;23;20149;-71
2022/07/02 09:15:03;;;;;;;1.35;0.40;;;22.50;99.90;;;;;;6216653;23;20181;-71
2022/07/02 09:17:28;;;;;;;0.70;0.50;;;22.50;99.90;;;;;;6219538;23;20180;-73
2022/07/02 09:19:56;;;;;;;1.08;0.50;;;22.50;99.90;;;;;;6217763;23;20244;-71
2022/07/02 09:22:31;;;;;;;0.40;0.40;;;22.50;99.90;;;;;;6217077;23;20165;-70
2022/07/02 09:25:28;;;;;;;0.30;0.30;;;22.50;99.90;;;;;;6216867;23;20173;-72
2022/07/02 09:28:03;;;;;;;0.93;0.65;;;22.60;99.90;;;;;;6199553;23;20157;-72
2022/07/02 09:30:40;;;;;;;1.40;0.70;;;22.70;99.90;;;;;;6222612;23;20152;-71
2022/07/02 09:33:29;;;;;;;0.63;0.50;;;22.70;99.90;;;;;;6216712;23;20173;-73
2022/07/02 09:35:59;;;;;;;0.75;0.50;;;22.70;99.90;;;;;;6220502;23;20153;-72
2022/07/02 09:38:26;;;;;;;0.57;0.50;;;22.70;99.90;;;;;;6215490;23;20211;-73
2022/07/02 09:41:01;;;;;;;2.15;0.45;;;22.80;99.90;;;;;;6217588;23;20142;-72
2022/07/02 09:43:38;;;;;;;1.85;0.47;;;22.80;99.90;;;;;;6216525;23;20181;-72
2022/07/02 09:46:16;;;;;;;0.70;0.38;;;22.90;99.90;;;;;;6216891;23;20304;-73
2022/07/02 09:48:45;;;;;;;0.70;0.45;;;22.90;99.90;;;;;;6216476;23;20161;-72
2022/07/02 09:51:14;;;;;;;0.93;0.32;;;23.00;99.90;;;;;;6214077;23;20471;-73
2022/07/02 09:53:56;;;;;;;0.93;0.45;;;23.00;99.90;;;;;;6218419;23;20157;-72
2022/07/02 09:56:25;;;;;;;0.60;0.50;;;23.10;99.90;;;;;;6215465;23;20153;-70
2022/07/02 09:58:56;;;;;;;1.08;0.50;;;23.10;99.90;;;;;;6213646;23;20161;-71
2022/07/02 10:01:23;;;;;;;1.48;0.60;;;23.20;99.90;;;;;;6215633;23;20157;-72
2022/07/02 10:03:56;;;;;;;0.77;0.32;;;23.30;99.90;;;;;;6213592;23;20177;-74
2022/07/02 10:06:21;;;;;;;0.50;0.40;;;23.40;99.90;;;;;;6215442;23;20156;-73
2022/07/02 10:08:48;;;;;;;0.95;0.60;;;23.40;99.90;;;;;;6219710;23;20240;-70
2022/07/02 10:11:15;;;;;;;0.85;0.70;;;23.60;99.90;;;;;;6219197;23;20156;-73
2022/07/02 10:13:42;;;;;;;2.72;0.70;;;23.70;99.90;;;;;;6216577;23;20184;-72
2022/07/02 10:16:17;;;;;;;0.60;0.50;;;23.80;99.90;;;;;;6216953;23;20160;-72
2022/07/02 10:18:43;;;;;;;1.52;0.50;;;24.00;99.90;;;;;;6212956;23;20161;-72
2022/07/02 10:21:13;;;;;;;1.33;0.60;;;24.10;99.90;;;;;;6214585;23;20157;-73
2022/07/02 10:23:42;;;;;;;1.90;0.60;;;24.30;99.90;;;;;;6214287;23;20560;-76
2022/07/02 10:26:11;;;;;;;0.65;0.45;;;24.40;99.90;;;;;;6213520;23;20180;-75
2022/07/02 10:28:39;;;;;;;0.50;0.38;;;24.60;99.90;;;;;;6213143;23;20153;-75
2022/07/02 10:31:08;;;;;;;0.70;0.40;;;24.70;99.90;;;;;;6217811;23;20149;-73
2022/07/02 10:33:44;;;;;;;1.13;0.50;;;24.80;99.90;;;;;;6213739;23;20180;-75
2022/07/02 10:36:13;;;;;;;2.30;0.40;;;24.90;99.90;;;;;;6213701;23;20153;-70
2022/07/02 10:38:39;;;;;;;0.95;0.40;;;25.00;99.90;;;;;;6213342;23;20165;-69
2022/07/02 10:41:06;;;;;;;1.55;0.60;;;25.00;99.90;;;;;;6213847;23;20160;-69
2022/07/02 10:43:33;;;;;;;0.63;0.40;;;25.10;99.90;;;;;;6213308;23;20207;-70
2022/07/02 10:46:13;;;;;;;1.38;0.57;;;25.30;99.90;;;;;;6214866;23;20157;-69
2022/07/02 10:48:58;;;;;;;0.80;0.50;;;25.50;99.90;;;;;;6216257;23;20157;-71
2022/07/02 10:51:25;;;;;;;0.90;0.40;;;25.70;99.90;;;;;;6215690;23;20309;-68
2022/07/02 10:54:03;;;;;;;2.05;0.43;;;25.90;99.90;;;;;;6214703;23;20149;-69
2022/07/02 10:56:32;;;;;;;0.52;0.50;;;26.10;99.90;;;;;;6214976;23;20251;-72
2022/07/02 10:59:00;;;;;;;1.40;0.68;;;26.20;99.90;;;;;;6216148;23;20192;-69
2022/07/02 11:01:28;;;;;;;1.60;0.70;;;26.30;99.90;;;;;;6217622;23;20169;-71
2022/07/02 11:03:56;;;;;;;1.05;0.63;;;26.50;99.90;;;;;;6219788;23;20264;-69
2022/07/02 11:06:32;;;;;;;1.20;0.80;;;26.60;99.90;;;;;;6221997;23;20161;-72
2022/07/02 11:09:06;;;;;;;1.02;0.63;;;26.80;99.90;;;;;;6217062;23;20146;-69
2022/07/02 11:14:02;;;;;;;1.27;0.70;;;27.10;99.90;;;;;;6230556;23;20257;-69
2022/07/02 11:16:38;;;;;;;1.02;0.55;;;27.20;99.90;;;;;;6216646;23;20188;-72
2022/07/02 11:19:18;;;;;;;0.80;0.52;;;27.40;99.90;;;;;;6218917;23;20468;-72
2022/07/02 11:21:50;;;;;;;0.60;0.55;;;27.60;99.90;;;;;;6215898;23;20161;-71
2022/07/02 11:24:20;;;;;;;0.93;0.50;;;27.70;99.90;;;;;;6221608;23;20181;-74
2022/07/02 11:26:49;;;;;;;0.98;0.60;;;27.90;99.90;;;;;;6223146;23;20156;-73
2022/07/02 11:29:15;;;;;;;1.45;0.52;;;28.00;99.90;;;;;;6216539;23;20150;-73
2022/07/02 11:31:51;;;;;;;1.23;0.50;;;28.10;99.90;;;;;;6219862;23;20169;-74
2022/07/02 11:34:21;;;;;;;0.98;0.45;;;28.30;99.90;;;;;;6228913;23;20137;-71
2022/07/02 11:36:47;;;;;;;1.02;0.40;;;28.50;99.90;;;;;;6221989;23;20188;-71
2022/07/02 11:39:16;;;;;;;1.10;0.60;;;28.60;99.90;;;;;;6219819;23;20169;-72
2022/07/02 11:41:45;;;;;;;0.70;0.43;;;28.70;99.90;;;;;;6222693;23;20172;-71
2022/07/02 11:44:15;;;;;;;0.70;0.50;;;28.80;99.90;;;;;;6219196;23;20230;-73
2022/07/02 11:46:42;;;;;;;0.55;0.45;;;28.80;99.90;;;;;;6217349;23;20211;-77
2022/07/02 11:49:19;;;;;;;1.13;0.55;;;28.70;99.90;;;;;;6220441;23;20150;-71
2022/07/02 11:51:48;;;;;;;0.60;0.50;;;28.60;99.90;;;;;;6220756;23;20146;-72
2022/07/02 11:54:15;;;;;;;1.00;0.55;;;28.40;99.90;;;;;;6214769;23;20212;-72
2022/07/02 11:56:45;;;;;;;3.15;0.60;;;28.30;99.90;;;;;;6215013;23;20165;-71
2022/07/02 11:59:16;;;;;;;0.73;0.57;;;28.30;99.90;;;;;;6215139;23;20173;-73
2022/07/02 12:01:47;;;;;;;1.20;0.50;;;28.40;99.90;;;;;;6223402;23;20156;-77
2022/07/02 12:04:16;;;;;;;0.70;0.40;;;28.50;99.90;;;;;;6215638;23;20203;-73
2022/07/02 12:06:44;;;;;;;1.80;0.52;;;28.70;99.90;;;;;;6224213;23;20212;-71
2022/07/02 12:09:38;;;;;;;2.20;0.60;;;29.00;99.90;;;;;;6218624;23;20180;-74
2022/07/02 12:12:07;;;;;;;0.73;0.45;;;29.10;99.90;;;;;;6211895;23;20173;-74
2022/07/02 12:14:37;;;;;;;2.42;0.50;;;29.20;99.90;;;;;;6218397;23;20137;-75
2022/07/02 12:17:05;;;;;;;0.98;0.50;;;29.30;99.80;;;;;;6217274;23;20163;-68
2022/07/02 12:19:33;;;;;;;1.33;0.50;;;29.40;98.80;;;;;;6221332;23;20180;-77
2022/07/02 12:21:59;;;;;;;0.90;0.50;;;29.40;99.90;;;;;;6218447;23;20149;-78
2022/07/02 12:24:32;;;;;;;2.33;0.50;;;29.50;99.90;;;;;;6224321;23;20180;-74
2022/07/02 12:27:00;;;;;;;0.95;0.50;;;29.70;99.70;;;;;;6214754;23;20172;-79
2022/07/02 12:32:18;;;;;;;0.95;0.40;;;29.90;99.80;;;;;;6218171;23;20626;-79
2022/07/02 12:34:46;;;;;;;0.50;0.32;;;30.10;99.30;;;;;;6218842;23;20273;-74
2022/07/02 12:37:25;;;;;;;0.75;0.50;;;30.20;97.70;;;;;;6215351;23;20185;-77
2022/07/02 12:40:14;;;;;;;1.95;0.60;;;30.30;93.70;;;;;;6215890;23;20287;-78
2022/07/02 12:43:01;;;;;;;1.67;0.50;;;30.30;93.00;;;;;;6202896;23;20153;-79
2022/07/02 12:45:42;;;;;;;0.95;0.50;;;30.30;95.50;;;;;;6216790;23;20163;-73
2022/07/02 12:48:16;;;;;;;0.65;0.55;;;30.50;95.90;;;;;;6221382;23;20249;-75
2022/07/02 12:50:44;;;;;;;1.50;0.60;;;30.60;96.30;;;;;;6220740;23;20148;-75
2022/07/02 12:53:14;;;;;;;0.65;0.57;;;30.60;96.40;;;;;;6217576;23;20164;-83
2022/07/02 12:55:45;;;;;;;2.72;0.80;;;30.70;96.60;;;;;;6216504;23;20181;-78
2022/07/02 12:58:13;;;;;;;1.90;0.80;;;30.90;94.80;;;;;;6217263;23;20249;-77
2022/07/02 13:00:41;;;;;;;1.48;0.80;;;30.90;93.90;;;;;;6225658;23;20169;-78